sensor_id;sensor_type;location;lat;lon;timestamp;temperature;humidity
26641;DHT22;14269;47.358;0.724;2023-04-01T00:02:05;12.0;73.0
26641;DHT22;14269;47.358;0.724;2023-04-01T00:04:37;12.0;72.0
26641;DHT22;14269;47.358;0.724;2023-04-01T00:07:09;12.0;72.0
26641;DHT22;14269;47.358;0.724;2023-04-01T00:09:40;12.0;73.0
26641;DHT22;14269;47.358;0.724;2023-04-01T00:12:12;12.0;72.0
26641;DHT22;14269;47.358;0.724;2023-04-01T00:14:43;12.0;72.0
26641;DHT22;14269;47.358;0.724;2023-04-01T00:17:15;12.0;72.0
26641;DHT22;14269;47.358;0.724;2023-04-01T00:19:47;12.0;73.0
26641;DHT22;14269;47.358;0.724;2023-04-01T00:22:18;12.0;73.0
26641;DHT22;14269;47.358;0.724;2023-04-01T00:24:50;12.0;73.0
26641;DHT22;14269;47.358;0.724;2023-04-01T00:27:22;12.0;73.0
26641;DHT22;14269;47.358;0.724;2023-04-01T00:29:53;12.0;73.0
26641;DHT22;14269;47.358;0.724;2023-04-01T00:32:26;12.0;73.0
26641;DHT22;14269;47.358;0.724;2023-04-01T00:34:59;12.0;73.0
26641;DHT22;14269;47.358;0.724;2023-04-01T00:37:39;12.0;73.0
26641;DHT22;14269;47.358;0.724;2023-04-01T00:40:23;12.0;73.0
26641;DHT22;14269;47.358;0.724;2023-04-01T00:43:03;12.0;73.0
26641;DHT22;14269;47.358;0.724;2023-04-01T00:45:45;12.0;73.0
26641;DHT22;14269;47.358;0.724;2023-04-01T00:48:29;12.0;73.0
26641;DHT22;14269;47.358;0.724;2023-04-01T00:51:10;12.0;73.0
26641;DHT22;14269;47.358;0.724;2023-04-01T00:53:51;12.0;73.0
26641;DHT22;14269;47.358;0.724;2023-04-01T00:56:33;12.0;72.0
26641;DHT22;14269;47.358;0.724;2023-04-01T00:59:16;12.0;72.0
26641;DHT22;14269;47.358;0.724;2023-04-01T01:01:54;12.0;73.0
26641;DHT22;14269;47.358;0.724;2023-04-01T01:04:27;12.0;72.0
26641;DHT22;14269;47.358;0.724;2023-04-01T01:07:18;12.0;73.0
26641;DHT22;14269;47.358;0.724;2023-04-01T01:10:04;12.0;73.0
26641;DHT22;14269;47.358;0.724;2023-04-01T01:12:45;12.0;73.0
26641;DHT22;14269;47.358;0.724;2023-04-01T01:15:25;12.0;73.0
26641;DHT22;14269;47.358;0.724;2023-04-01T01:18:08;12.0;73.0
26641;DHT22;14269;47.358;0.724;2023-04-01T01:21:04;12.0;73.0
26641;DHT22;14269;47.358;0.724;2023-04-01T01:24:02;12.0;73.0
26641;DHT22;14269;47.358;0.724;2023-04-01T01:26:48;12.0;73.0
26641;DHT22;14269;47.358;0.724;2023-04-01T01:29:40;12.0;73.0
26641;DHT22;14269;47.358;0.724;2023-04-01T01:32:26;12.0;73.0
26641;DHT22;14269;47.358;0.724;2023-04-01T01:35:14;12.0;74.0
26641;DHT22;14269;47.358;0.724;2023-04-01T01:37:51;12.0;73.0
26641;DHT22;14269;47.358;0.724;2023-04-01T01:40:30;12.0;73.0
26641;DHT22;14269;47.358;0.724;2023-04-01T01:43:14;12.0;73.0
26641;DHT22;14269;47.358;0.724;2023-04-01T01:45:55;12.0;73.0
26641;DHT22;14269;47.358;0.724;2023-04-01T01:48:36;12.0;73.0
26641;DHT22;14269;47.358;0.724;2023-04-01T01:51:17;12.0;73.0
26641;DHT22;14269;47.358;0.724;2023-04-01T01:53:48;12.0;73.0
26641;DHT22;14269;47.358;0.724;2023-04-01T01:56:23;12.0;73.0
26641;DHT22;14269;47.358;0.724;2023-04-01T01:59:03;12.0;74.0
26641;DHT22;14269;47.358;0.724;2023-04-01T02:01:48;12.0;73.0
26641;DHT22;14269;47.358;0.724;2023-04-01T02:04:25;12.0;73.0
26641;DHT22;14269;47.358;0.724;2023-04-01T02:07:09;12.0;73.0
26641;DHT22;14269;47.358;0.724;2023-04-01T02:09:49;12.0;73.0
26641;DHT22;14269;47.358;0.724;2023-04-01T02:12:30;12.0;73.0
26641;DHT22;14269;47.358;0.724;2023-04-01T02:15:05;12.0;72.0
26641;DHT22;14269;47.358;0.724;2023-04-01T02:17:45;11.0;72.0
26641;DHT22;14269;47.358;0.724;2023-04-01T02:20:28;11.0;72.0
26641;DHT22;14269;47.358;0.724;2023-04-01T02:23:08;11.0;72.0
26641;DHT22;14269;47.358;0.724;2023-04-01T02:25:49;11.0;72.0
26641;DHT22;14269;47.358;0.724;2023-04-01T02:28:31;11.0;72.0
26641;DHT22;14269;47.358;0.724;2023-04-01T02:31:13;11.0;71.0
26641;DHT22;14269;47.358;0.724;2023-04-01T02:33:54;11.0;72.0
26641;DHT22;14269;47.358;0.724;2023-04-01T02:36:26;11.0;72.0
26641;DHT22;14269;47.358;0.724;2023-04-01T02:39:02;11.0;72.0
26641;DHT22;14269;47.358;0.724;2023-04-01T02:41:40;11.0;72.0
26641;DHT22;14269;47.358;0.724;2023-04-01T02:44:21;11.0;72.0
26641;DHT22;14269;47.358;0.724;2023-04-01T02:46:53;11.0;72.0
26641;DHT22;14269;47.358;0.724;2023-04-01T02:49:24;11.0;73.0
26641;DHT22;14269;47.358;0.724;2023-04-01T02:51:56;11.0;73.0
26641;DHT22;14269;47.358;0.724;2023-04-01T02:54:27;11.0;73.0
26641;DHT22;14269;47.358;0.724;2023-04-01T02:56:59;11.0;74.0
26641;DHT22;14269;47.358;0.724;2023-04-01T02:59:31;11.0;74.0
26641;DHT22;14269;47.358;0.724;2023-04-01T03:02:02;11.0;75.0
26641;DHT22;14269;47.358;0.724;2023-04-01T03:04:34;11.0;75.0
26641;DHT22;14269;47.358;0.724;2023-04-01T03:07:06;11.0;76.0
26641;DHT22;14269;47.358;0.724;2023-04-01T03:09:37;11.0;76.0
26641;DHT22;14269;47.358;0.724;2023-04-01T03:12:09;11.0;76.0
26641;DHT22;14269;47.358;0.724;2023-04-01T03:14:41;11.0;76.0
26641;DHT22;14269;47.358;0.724;2023-04-01T03:17:12;11.0;76.0
26641;DHT22;14269;47.358;0.724;2023-04-01T03:19:44;11.0;76.0
26641;DHT22;14269;47.358;0.724;2023-04-01T03:22:16;11.0;77.0
26641;DHT22;14269;47.358;0.724;2023-04-01T03:24:47;11.0;77.0
26641;DHT22;14269;47.358;0.724;2023-04-01T03:27:19;11.0;77.0
26641;DHT22;14269;47.358;0.724;2023-04-01T03:29:50;11.0;77.0
26641;DHT22;14269;47.358;0.724;2023-04-01T03:32:22;11.0;77.0
26641;DHT22;14269;47.358;0.724;2023-04-01T03:34:54;11.0;77.0
26641;DHT22;14269;47.358;0.724;2023-04-01T03:37:25;11.0;76.0
26641;DHT22;14269;47.358;0.724;2023-04-01T03:39:57;11.0;76.0
26641;DHT22;14269;47.358;0.724;2023-04-01T03:42:30;11.0;76.0
26641;DHT22;14269;47.358;0.724;2023-04-01T03:45:12;11.0;76.0
26641;DHT22;14269;47.358;0.724;2023-04-01T03:47:52;11.0;76.0
26641;DHT22;14269;47.358;0.724;2023-04-01T03:50:24;11.0;75.0
26641;DHT22;14269;47.358;0.724;2023-04-01T03:52:55;11.0;76.0
26641;DHT22;14269;47.358;0.724;2023-04-01T03:55:27;11.0;76.0
26641;DHT22;14269;47.358;0.724;2023-04-01T03:57:59;11.0;75.0
26641;DHT22;14269;47.358;0.724;2023-04-01T04:00:40;11.0;75.0
26641;DHT22;14269;47.358;0.724;2023-04-01T04:03:12;11.0;75.0
26641;DHT22;14269;47.358;0.724;2023-04-01T04:05:47;11.0;75.0
26641;DHT22;14269;47.358;0.724;2023-04-01T04:08:26;11.0;75.0
26641;DHT22;14269;47.358;0.724;2023-04-01T04:10:57;11.0;75.0
26641;DHT22;14269;47.358;0.724;2023-04-01T04:13:29;11.0;75.0
26641;DHT22;14269;47.358;0.724;2023-04-01T04:16:01;11.0;75.0
26641;DHT22;14269;47.358;0.724;2023-04-01T04:18:32;11.0;75.0
26641;DHT22;14269;47.358;0.724;2023-04-01T04:21:04;11.0;74.0
26641;DHT22;14269;47.358;0.724;2023-04-01T04:23:37;11.0;74.0
26641;DHT22;14269;47.358;0.724;2023-04-01T04:26:17;11.0;74.0
26641;DHT22;14269;47.358;0.724;2023-04-01T04:28:49;11.0;75.0
26641;DHT22;14269;47.358;0.724;2023-04-01T04:31:22;11.0;75.0
26641;DHT22;14269;47.358;0.724;2023-04-01T04:34:02;11.0;74.0
26641;DHT22;14269;47.358;0.724;2023-04-01T04:36:34;11.0;74.0
26641;DHT22;14269;47.358;0.724;2023-04-01T04:39:06;11.0;74.0
26641;DHT22;14269;47.358;0.724;2023-04-01T04:41:37;11.0;74.0
26641;DHT22;14269;47.358;0.724;2023-04-01T04:44:09;11.0;74.0
26641;DHT22;14269;47.358;0.724;2023-04-01T04:46:41;11.0;74.0
26641;DHT22;14269;47.358;0.724;2023-04-01T04:49:13;11.0;74.0
26641;DHT22;14269;47.358;0.724;2023-04-01T04:51:44;11.0;74.0
26641;DHT22;14269;47.358;0.724;2023-04-01T04:54:16;11.0;74.0
26641;DHT22;14269;47.358;0.724;2023-04-01T04:56:47;11.0;74.0
26641;DHT22;14269;47.358;0.724;2023-04-01T04:59:19;11.0;75.0
26641;DHT22;14269;47.358;0.724;2023-04-01T05:01:50;11.0;75.0
26641;DHT22;14269;47.358;0.724;2023-04-01T05:04:22;11.0;75.0
26641;DHT22;14269;47.358;0.724;2023-04-01T05:06:54;11.0;75.0
26641;DHT22;14269;47.358;0.724;2023-04-01T05:09:26;11.0;75.0
26641;DHT22;14269;47.358;0.724;2023-04-01T05:11:57;11.0;75.0
26641;DHT22;14269;47.358;0.724;2023-04-01T05:14:29;11.0;74.0
26641;DHT22;14269;47.358;0.724;2023-04-01T05:17:00;11.0;75.0
26641;DHT22;14269;47.358;0.724;2023-04-01T05:19:32;11.0;75.0
26641;DHT22;14269;47.358;0.724;2023-04-01T05:22:04;11.0;75.0
26641;DHT22;14269;47.358;0.724;2023-04-01T05:24:35;11.0;75.0
26641;DHT22;14269;47.358;0.724;2023-04-01T05:27:07;11.0;75.0
26641;DHT22;14269;47.358;0.724;2023-04-01T05:29:38;11.0;75.0
26641;DHT22;14269;47.358;0.724;2023-04-01T05:32:10;11.0;75.0
26641;DHT22;14269;47.358;0.724;2023-04-01T05:34:42;11.0;75.0
26641;DHT22;14269;47.358;0.724;2023-04-01T05:37:13;11.0;75.0
26641;DHT22;14269;47.358;0.724;2023-04-01T05:39:45;11.0;75.0
26641;DHT22;14269;47.358;0.724;2023-04-01T05:42:17;11.0;75.0
26641;DHT22;14269;47.358;0.724;2023-04-01T05:44:48;11.0;75.0
26641;DHT22;14269;47.358;0.724;2023-04-01T05:47:20;11.0;76.0
26641;DHT22;14269;47.358;0.724;2023-04-01T05:49:52;11.0;76.0
26641;DHT22;14269;47.358;0.724;2023-04-01T05:52:23;11.0;76.0
26641;DHT22;14269;47.358;0.724;2023-04-01T05:54:55;11.0;75.0
26641;DHT22;14269;47.358;0.724;2023-04-01T05:57:27;11.0;75.0
26641;DHT22;14269;47.358;0.724;2023-04-01T05:59:58;11.0;76.0
26641;DHT22;14269;47.358;0.724;2023-04-01T06:02:30;11.0;75.0
26641;DHT22;14269;47.358;0.724;2023-04-01T06:05:12;11.0;75.0
26641;DHT22;14269;47.358;0.724;2023-04-01T06:07:57;11.0;75.0
26641;DHT22;14269;47.358;0.724;2023-04-01T06:10:43;11.0;75.0
26641;DHT22;14269;47.358;0.724;2023-04-01T06:13:29;11.0;74.0
26641;DHT22;14269;47.358;0.724;2023-04-01T06:16:14;11.0;74.0
26641;DHT22;14269;47.358;0.724;2023-04-01T06:19:08;11.0;75.0
26641;DHT22;14269;47.358;0.724;2023-04-01T06:23:01;11.0;74.0
26641;DHT22;14269;47.358;0.724;2023-04-01T06:25:56;11.0;74.0
26641;DHT22;14269;47.358;0.724;2023-04-01T06:28:49;12.0;73.0
26641;DHT22;14269;47.358;0.724;2023-04-01T06:31:44;12.0;73.0
26641;DHT22;14269;47.358;0.724;2023-04-01T06:34:32;12.0;72.0
26641;DHT22;14269;47.358;0.724;2023-04-01T06:37:23;12.0;72.0
26641;DHT22;14269;47.358;0.724;2023-04-01T06:40:18;12.0;72.0
26641;DHT22;14269;47.358;0.724;2023-04-01T06:43:05;12.0;72.0
26641;DHT22;14269;47.358;0.724;2023-04-01T06:45:54;12.0;73.0
26641;DHT22;14269;47.358;0.724;2023-04-01T06:48:41;12.0;72.0
26641;DHT22;14269;47.358;0.724;2023-04-01T06:51:28;12.0;72.0
26641;DHT22;14269;47.358;0.724;2023-04-01T06:54:08;12.0;71.0
26641;DHT22;14269;47.358;0.724;2023-04-01T06:56:48;12.0;71.0
26641;DHT22;14269;47.358;0.724;2023-04-01T06:59:28;12.0;71.0
26641;DHT22;14269;47.358;0.724;2023-04-01T07:02:19;12.0;70.0
26641;DHT22;14269;47.358;0.724;2023-04-01T07:05:02;12.0;70.0
26641;DHT22;14269;47.358;0.724;2023-04-01T07:07:45;12.0;71.0
26641;DHT22;14269;47.358;0.724;2023-04-01T07:10:34;12.0;71.0
26641;DHT22;14269;47.358;0.724;2023-04-01T07:13:20;13.0;70.0
26641;DHT22;14269;47.358;0.724;2023-04-01T07:16:05;13.0;70.0
26641;DHT22;14269;47.358;0.724;2023-04-01T07:18:43;12.0;70.0
26641;DHT22;14269;47.358;0.724;2023-04-01T07:21:26;13.0;69.0
26641;DHT22;14269;47.358;0.724;2023-04-01T07:24:06;13.0;68.0
26641;DHT22;14269;47.358;0.724;2023-04-01T07:26:45;13.0;69.0
26641;DHT22;14269;47.358;0.724;2023-04-01T07:29:16;13.0;68.0
26641;DHT22;14269;47.358;0.724;2023-04-01T07:32:05;13.0;69.0
26641;DHT22;14269;47.358;0.724;2023-04-01T07:34:50;13.0;69.0
26641;DHT22;14269;47.358;0.724;2023-04-01T07:37:39;13.0;70.0
26641;DHT22;14269;47.358;0.724;2023-04-01T07:40:22;13.0;69.0
26641;DHT22;14269;47.358;0.724;2023-04-01T07:43:10;13.0;69.0
26641;DHT22;14269;47.358;0.724;2023-04-01T07:45:53;13.0;70.0
26641;DHT22;14269;47.358;0.724;2023-04-01T07:48:33;13.0;70.0
26641;DHT22;14269;47.358;0.724;2023-04-01T07:51:15;13.0;69.0
26641;DHT22;14269;47.358;0.724;2023-04-01T07:53:57;13.0;67.0
26641;DHT22;14269;47.358;0.724;2023-04-01T07:56:40;13.0;67.0
26641;DHT22;14269;47.358;0.724;2023-04-01T07:59:19;13.0;67.0
26641;DHT22;14269;47.358;0.724;2023-04-01T08:02:05;14.0;66.0
26641;DHT22;14269;47.358;0.724;2023-04-01T08:04:50;14.0;65.0
26641;DHT22;14269;47.358;0.724;2023-04-01T08:07:40;14.0;64.0
26641;DHT22;14269;47.358;0.724;2023-04-01T08:10:30;14.0;63.0
26641;DHT22;14269;47.358;0.724;2023-04-01T08:13:11;15.0;63.0
26641;DHT22;14269;47.358;0.724;2023-04-01T08:15:52;14.0;63.0
26641;DHT22;14269;47.358;0.724;2023-04-01T08:18:35;14.0;63.0
26641;DHT22;14269;47.358;0.724;2023-04-01T08:21:14;14.0;64.0
26641;DHT22;14269;47.358;0.724;2023-04-01T08:23:55;15.0;63.0
26641;DHT22;14269;47.358;0.724;2023-04-01T08:26:36;14.0;62.0
26641;DHT22;14269;47.358;0.724;2023-04-01T08:29:18;15.0;61.0
26641;DHT22;14269;47.358;0.724;2023-04-01T08:32:01;15.0;60.0
26641;DHT22;14269;47.358;0.724;2023-04-01T08:34:42;14.0;62.0
26641;DHT22;14269;47.358;0.724;2023-04-01T08:37:25;14.0;61.0
26641;DHT22;14269;47.358;0.724;2023-04-01T08:40:33;15.0;59.0
26641;DHT22;14269;47.358;0.724;2023-04-01T08:43:21;15.0;60.0
26641;DHT22;14269;47.358;0.724;2023-04-01T08:46:05;15.0;59.0
26641;DHT22;14269;47.358;0.724;2023-04-01T08:48:58;15.0;59.0
26641;DHT22;14269;47.358;0.724;2023-04-01T08:51:56;15.0;57.0
26641;DHT22;14269;47.358;0.724;2023-04-01T08:54:43;15.0;59.0
26641;DHT22;14269;47.358;0.724;2023-04-01T08:57:36;14.0;60.0
26641;DHT22;14269;47.358;0.724;2023-04-01T09:00:24;14.0;59.0
26641;DHT22;14269;47.358;0.724;2023-04-01T09:03:37;14.0;59.0
26641;DHT22;14269;47.358;0.724;2023-04-01T09:06:28;14.0;60.0
26641;DHT22;14269;47.358;0.724;2023-04-01T09:09:19;14.0;60.0
26641;DHT22;14269;47.358;0.724;2023-04-01T09:12:08;14.0;61.0
26641;DHT22;14269;47.358;0.724;2023-04-01T09:15:01;14.0;60.0
26641;DHT22;14269;47.358;0.724;2023-04-01T09:17:50;15.0;58.0
26641;DHT22;14269;47.358;0.724;2023-04-01T09:20:44;16.0;54.0
26641;DHT22;14269;47.358;0.724;2023-04-01T09:23:41;17.0;53.0
26641;DHT22;14269;47.358;0.724;2023-04-01T09:26:51;17.0;52.0
26641;DHT22;14269;47.358;0.724;2023-04-01T09:29:41;17.0;51.0
26641;DHT22;14269;47.358;0.724;2023-04-01T09:32:33;18.0;49.0
26641;DHT22;14269;47.358;0.724;2023-04-01T09:35:39;18.0;50.0
26641;DHT22;14269;47.358;0.724;2023-04-01T09:38:23;17.0;50.0
26641;DHT22;14269;47.358;0.724;2023-04-01T09:41:07;18.0;49.0
26641;DHT22;14269;47.358;0.724;2023-04-01T09:43:56;18.0;47.0
26641;DHT22;14269;47.358;0.724;2023-04-01T09:46:45;17.0;47.0
26641;DHT22;14269;47.358;0.724;2023-04-01T09:49:42;17.0;49.0
26641;DHT22;14269;47.358;0.724;2023-04-01T09:52:26;15.0;51.0
26641;DHT22;14269;47.358;0.724;2023-04-01T09:55:23;17.0;50.0
26641;DHT22;14269;47.358;0.724;2023-04-01T09:58:24;17.0;49.0
26641;DHT22;14269;47.358;0.724;2023-04-01T10:01:28;18.0;47.0
26641;DHT22;14269;47.358;0.724;2023-04-01T10:04:25;17.0;46.0
26641;DHT22;14269;47.358;0.724;2023-04-01T10:07:28;17.0;48.0
26641;DHT22;14269;47.358;0.724;2023-04-01T10:17:29;16.0;50.0
26641;DHT22;14269;47.358;0.724;2023-04-01T10:20:52;17.0;48.0
26641;DHT22;14269;47.358;0.724;2023-04-01T10:23:45;17.0;50.0
26641;DHT22;14269;47.358;0.724;2023-04-01T10:26:49;17.0;49.0
26641;DHT22;14269;47.358;0.724;2023-04-01T10:30:09;17.0;49.0
26641;DHT22;14269;47.358;0.724;2023-04-01T10:35:56;18.0;48.0
26641;DHT22;14269;47.358;0.724;2023-04-01T10:42:31;19.0;45.0
26641;DHT22;14269;47.358;0.724;2023-04-01T10:45:33;19.0;43.0
26641;DHT22;14269;47.358;0.724;2023-04-01T10:48:25;19.0;43.0
26641;DHT22;14269;47.358;0.724;2023-04-01T10:51:18;19.0;42.0
26641;DHT22;14269;47.358;0.724;2023-04-01T10:54:20;19.0;44.0
26641;DHT22;14269;47.358;0.724;2023-04-01T10:56:55;18.0;44.0
26641;DHT22;14269;47.358;0.724;2023-04-01T11:00:12;18.0;42.0
26641;DHT22;14269;47.358;0.724;2023-04-01T11:03:11;19.0;43.0
26641;DHT22;14269;47.358;0.724;2023-04-01T11:09:36;19.0;44.0
26641;DHT22;14269;47.358;0.724;2023-04-01T11:12:56;19.0;43.0
26641;DHT22;14269;47.358;0.724;2023-04-01T11:16:53;20.0;41.0
26641;DHT22;14269;47.358;0.724;2023-04-01T11:19:52;20.0;42.0
26641;DHT22;14269;47.358;0.724;2023-04-01T11:22:54;20.0;40.0
26641;DHT22;14269;47.358;0.724;2023-04-01T11:25:53;20.0;40.0
26641;DHT22;14269;47.358;0.724;2023-04-01T11:31:17;20.0;40.0
26641;DHT22;14269;47.358;0.724;2023-04-01T11:34:02;20.0;41.0
26641;DHT22;14269;47.358;0.724;2023-04-01T11:36:55;20.0;39.0
26641;DHT22;14269;47.358;0.724;2023-04-01T11:39:33;20.0;40.0
26641;DHT22;14269;47.358;0.724;2023-04-01T11:42:19;20.0;39.0
26641;DHT22;14269;47.358;0.724;2023-04-01T11:45:00;20.0;38.0
26641;DHT22;14269;47.358;0.724;2023-04-01T11:47:55;21.0;38.0
26641;DHT22;14269;47.358;0.724;2023-04-01T11:50:46;20.0;40.0
26641;DHT22;14269;47.358;0.724;2023-04-01T11:53:36;19.0;42.0
26641;DHT22;14269;47.358;0.724;2023-04-01T11:56:33;18.0;41.0
26641;DHT22;14269;47.358;0.724;2023-04-01T11:59:44;18.0;45.0
26641;DHT22;14269;47.358;0.724;2023-04-01T12:02:30;18.0;44.0
26641;DHT22;14269;47.358;0.724;2023-04-01T12:05:42;17.0;45.0
26641;DHT22;14269;47.358;0.724;2023-04-01T12:08:31;17.0;45.0
26641;DHT22;14269;47.358;0.724;2023-04-01T12:11:17;17.0;45.0
26641;DHT22;14269;47.358;0.724;2023-04-01T12:14:08;17.0;45.0
26641;DHT22;14269;47.358;0.724;2023-04-01T12:16:52;17.0;47.0
26641;DHT22;14269;47.358;0.724;2023-04-01T12:19:32;18.0;47.0
26641;DHT22;14269;47.358;0.724;2023-04-01T12:22:21;18.0;46.0
26641;DHT22;14269;47.358;0.724;2023-04-01T12:25:14;17.0;47.0
26641;DHT22;14269;47.358;0.724;2023-04-01T12:28:01;17.0;50.0
26641;DHT22;14269;47.358;0.724;2023-04-01T12:30:39;16.0;55.0
26641;DHT22;14269;47.358;0.724;2023-04-01T12:33:41;15.0;56.0
26641;DHT22;14269;47.358;0.724;2023-04-01T12:36:30;16.0;57.0
26641;DHT22;14269;47.358;0.724;2023-04-01T12:39:23;16.0;57.0
26641;DHT22;14269;47.358;0.724;2023-04-01T12:42:08;15.0;57.0
26641;DHT22;14269;47.358;0.724;2023-04-01T12:44:52;15.0;57.0
26641;DHT22;14269;47.358;0.724;2023-04-01T12:48:01;15.0;56.0
26641;DHT22;14269;47.358;0.724;2023-04-01T12:51:01;15.0;57.0
26641;DHT22;14269;47.358;0.724;2023-04-01T12:53:49;14.0;58.0
26641;DHT22;14269;47.358;0.724;2023-04-01T12:56:36;14.0;60.0
26641;DHT22;14269;47.358;0.724;2023-04-01T12:59:27;15.0;60.0
26641;DHT22;14269;47.358;0.724;2023-04-01T13:02:12;15.0;61.0
26641;DHT22;14269;47.358;0.724;2023-04-01T13:04:56;15.0;61.0
26641;DHT22;14269;47.358;0.724;2023-04-01T13:07:47;15.0;60.0
26641;DHT22;14269;47.358;0.724;2023-04-01T13:10:38;15.0;60.0
26641;DHT22;14269;47.358;0.724;2023-04-01T13:13:31;15.0;60.0
26641;DHT22;14269;47.358;0.724;2023-04-01T13:16:16;16.0;58.0
26641;DHT22;14269;47.358;0.724;2023-04-01T13:18:58;15.0;61.0
26641;DHT22;14269;47.358;0.724;2023-04-01T13:21:47;16.0;59.0
26641;DHT22;14269;47.358;0.724;2023-04-01T13:24:38;15.0;60.0
26641;DHT22;14269;47.358;0.724;2023-04-01T13:27:24;15.0;59.0
26641;DHT22;14269;47.358;0.724;2023-04-01T13:30:13;15.0;59.0
26641;DHT22;14269;47.358;0.724;2023-04-01T13:32:59;14.0;60.0
26641;DHT22;14269;47.358;0.724;2023-04-01T13:35:41;14.0;64.0
26641;DHT22;14269;47.358;0.724;2023-04-01T13:38:41;14.0;66.0
26641;DHT22;14269;47.358;0.724;2023-04-01T13:41:27;15.0;65.0
26641;DHT22;14269;47.358;0.724;2023-04-01T13:44:07;15.0;64.0
26641;DHT22;14269;47.358;0.724;2023-04-01T13:46:56;15.0;63.0
26641;DHT22;14269;47.358;0.724;2023-04-01T13:49:48;16.0;60.0
26641;DHT22;14269;47.358;0.724;2023-04-01T13:52:44;16.0;59.0
26641;DHT22;14269;47.358;0.724;2023-04-01T13:55:26;16.0;58.0
26641;DHT22;14269;47.358;0.724;2023-04-01T13:58:16;16.0;57.0
26641;DHT22;14269;47.358;0.724;2023-04-01T14:00:59;15.0;58.0
26641;DHT22;14269;47.358;0.724;2023-04-01T14:03:53;15.0;58.0
26641;DHT22;14269;47.358;0.724;2023-04-01T14:06:44;16.0;56.0
26641;DHT22;14269;47.358;0.724;2023-04-01T14:09:40;17.0;54.0
26641;DHT22;14269;47.358;0.724;2023-04-01T14:12:29;17.0;54.0
26641;DHT22;14269;47.358;0.724;2023-04-01T14:15:14;17.0;53.0
26641;DHT22;14269;47.358;0.724;2023-04-01T14:18:02;18.0;51.0
26641;DHT22;14269;47.358;0.724;2023-04-01T14:20:52;18.0;52.0
26641;DHT22;14269;47.358;0.724;2023-04-01T14:23:38;17.0;51.0
26641;DHT22;14269;47.358;0.724;2023-04-01T14:28:43;16.0;54.0
26641;DHT22;14269;47.358;0.724;2023-04-01T14:31:30;16.0;54.0
26641;DHT22;14269;47.358;0.724;2023-04-01T14:34:25;15.0;58.0
26641;DHT22;14269;47.358;0.724;2023-04-01T14:37:15;14.0;64.0
26641;DHT22;14269;47.358;0.724;2023-04-01T14:40:16;14.0;65.0
26641;DHT22;14269;47.358;0.724;2023-04-01T14:43:27;14.0;66.0
26641;DHT22;14269;47.358;0.724;2023-04-01T14:46:45;14.0;66.0
26641;DHT22;14269;47.358;0.724;2023-04-01T14:49:30;15.0;66.0
26641;DHT22;14269;47.358;0.724;2023-04-01T14:52:10;15.0;66.0
26641;DHT22;14269;47.358;0.724;2023-04-01T14:54:48;15.0;65.0
26641;DHT22;14269;47.358;0.724;2023-04-01T14:57:29;15.0;67.0
26641;DHT22;14269;47.358;0.724;2023-04-01T15:00:14;15.0;66.0
26641;DHT22;14269;47.358;0.724;2023-04-01T15:02:57;15.0;66.0
26641;DHT22;14269;47.358;0.724;2023-04-01T15:05:43;15.0;67.0
26641;DHT22;14269;47.358;0.724;2023-04-01T15:08:27;15.0;68.0
26641;DHT22;14269;47.358;0.724;2023-04-01T15:11:21;15.0;67.0
26641;DHT22;14269;47.358;0.724;2023-04-01T15:14:15;14.0;68.0
26641;DHT22;14269;47.358;0.724;2023-04-01T15:16:59;14.0;67.0
26641;DHT22;14269;47.358;0.724;2023-04-01T15:19:45;14.0;66.0
26641;DHT22;14269;47.358;0.724;2023-04-01T15:22:37;14.0;66.0
26641;DHT22;14269;47.358;0.724;2023-04-01T15:25:27;14.0;67.0
26641;DHT22;14269;47.358;0.724;2023-04-01T15:28:19;14.0;67.0
26641;DHT22;14269;47.358;0.724;2023-04-01T15:31:04;14.0;67.0
26641;DHT22;14269;47.358;0.724;2023-04-01T15:33:50;14.0;68.0
26641;DHT22;14269;47.358;0.724;2023-04-01T15:36:32;14.0;69.0
26641;DHT22;14269;47.358;0.724;2023-04-01T15:39:13;14.0;69.0
26641;DHT22;14269;47.358;0.724;2023-04-01T15:42:02;14.0;69.0
26641;DHT22;14269;47.358;0.724;2023-04-01T15:44:50;14.0;68.0
26641;DHT22;14269;47.358;0.724;2023-04-01T15:47:34;14.0;67.0
26641;DHT22;14269;47.358;0.724;2023-04-01T15:50:28;14.0;68.0
26641;DHT22;14269;47.358;0.724;2023-04-01T15:53:13;15.0;68.0
26641;DHT22;14269;47.358;0.724;2023-04-01T15:55:59;15.0;66.0
26641;DHT22;14269;47.358;0.724;2023-04-01T15:58:47;14.0;66.0
26641;DHT22;14269;47.358;0.724;2023-04-01T16:01:38;14.0;65.0
26641;DHT22;14269;47.358;0.724;2023-04-01T16:04:40;14.0;65.0
26641;DHT22;14269;47.358;0.724;2023-04-01T16:07:36;14.0;65.0
26641;DHT22;14269;47.358;0.724;2023-04-01T16:10:25;14.0;65.0
26641;DHT22;14269;47.358;0.724;2023-04-01T16:13:20;14.0;65.0
26641;DHT22;14269;47.358;0.724;2023-04-01T16:16:07;14.0;65.0
26641;DHT22;14269;47.358;0.724;2023-04-01T16:19:04;14.0;64.0
26641;DHT22;14269;47.358;0.724;2023-04-01T16:21:48;14.0;63.0
26641;DHT22;14269;47.358;0.724;2023-04-01T16:24:34;14.0;64.0
26641;DHT22;14269;47.358;0.724;2023-04-01T16:27:12;14.0;64.0
26641;DHT22;14269;47.358;0.724;2023-04-01T16:29:51;14.0;65.0
26641;DHT22;14269;47.358;0.724;2023-04-01T16:32:37;14.0;65.0
26641;DHT22;14269;47.358;0.724;2023-04-01T16:35:26;14.0;64.0
26641;DHT22;14269;47.358;0.724;2023-04-01T16:38:11;14.0;65.0
26641;DHT22;14269;47.358;0.724;2023-04-01T16:40:50;14.0;65.0
26641;DHT22;14269;47.358;0.724;2023-04-01T16:43:35;14.0;65.0
26641;DHT22;14269;47.358;0.724;2023-04-01T16:46:32;14.0;65.0
26641;DHT22;14269;47.358;0.724;2023-04-01T16:49:47;14.0;64.0
26641;DHT22;14269;47.358;0.724;2023-04-01T16:52:36;14.0;63.0
26641;DHT22;14269;47.358;0.724;2023-04-01T16:55:18;14.0;63.0
26641;DHT22;14269;47.358;0.724;2023-04-01T16:57:59;14.0;63.0
26641;DHT22;14269;47.358;0.724;2023-04-01T17:00:41;14.0;63.0
26641;DHT22;14269;47.358;0.724;2023-04-01T17:03:25;14.0;63.0
26641;DHT22;14269;47.358;0.724;2023-04-01T17:06:11;14.0;62.0
26641;DHT22;14269;47.358;0.724;2023-04-01T17:08:55;14.0;63.0
26641;DHT22;14269;47.358;0.724;2023-04-01T17:11:40;14.0;63.0
26641;DHT22;14269;47.358;0.724;2023-04-01T17:14:24;14.0;62.0
26641;DHT22;14269;47.358;0.724;2023-04-01T17:17:10;14.0;62.0
26641;DHT22;14269;47.358;0.724;2023-04-01T17:20:03;14.0;62.0
26641;DHT22;14269;47.358;0.724;2023-04-01T17:22:48;14.0;63.0
26641;DHT22;14269;47.358;0.724;2023-04-01T17:25:34;14.0;63.0
26641;DHT22;14269;47.358;0.724;2023-04-01T17:28:27;13.0;63.0
26641;DHT22;14269;47.358;0.724;2023-04-01T17:31:16;13.0;63.0
26641;DHT22;14269;47.358;0.724;2023-04-01T17:34:00;13.0;63.0
26641;DHT22;14269;47.358;0.724;2023-04-01T17:36:53;13.0;63.0
26641;DHT22;14269;47.358;0.724;2023-04-01T17:39:46;14.0;63.0
26641;DHT22;14269;47.358;0.724;2023-04-01T17:42:36;13.0;63.0
26641;DHT22;14269;47.358;0.724;2023-04-01T17:45:23;13.0;63.0
26641;DHT22;14269;47.358;0.724;2023-04-01T17:48:06;13.0;62.0
26641;DHT22;14269;47.358;0.724;2023-04-01T17:50:50;13.0;62.0
26641;DHT22;14269;47.358;0.724;2023-04-01T17:53:31;13.0;62.0
26641;DHT22;14269;47.358;0.724;2023-04-01T17:56:21;13.0;63.0
26641;DHT22;14269;47.358;0.724;2023-04-01T17:59:03;13.0;62.0
26641;DHT22;14269;47.358;0.724;2023-04-01T18:01:57;13.0;63.0
26641;DHT22;14269;47.358;0.724;2023-04-01T18:04:55;13.0;63.0
26641;DHT22;14269;47.358;0.724;2023-04-01T18:07:53;13.0;63.0
26641;DHT22;14269;47.358;0.724;2023-04-01T18:10:41;13.0;63.0
26641;DHT22;14269;47.358;0.724;2023-04-01T18:13:40;13.0;63.0
26641;DHT22;14269;47.358;0.724;2023-04-01T18:16:30;13.0;63.0
26641;DHT22;14269;47.358;0.724;2023-04-01T18:19:16;13.0;63.0